Time;durP1;ratioP1;P1;durP2;ratioP2;P2;SDS_P1;SDS_P2;PMS_P1;PMS_P2;Temp;Humidity;BMP_temperature;BMP_pressure;BME280_temperature;BME280_humidity;BME280_pressure;Samples;Min_cycle;Max_cycle;Signal;HPM_P1;HPM_P2
2024/02/08 00:00:43;;;;;;;51.17;17.23;;;-0.70;99.90;;;;;;4943219;28;20144;-60
2024/02/08 00:03:11;;;;;;;47.53;18.33;;;-0.70;99.90;;;;;;4949044;28;20110;-61
2024/02/08 00:05:37;;;;;;;41.15;17.63;;;-0.70;99.90;;;;;;4949841;29;20030;-62
2024/02/08 00:08:04;;;;;;;52.00;17.98;;;-0.80;99.90;;;;;;4948421;29;20028;-62
2024/02/08 00:10:30;;;;;;;51.40;17.83;;;-0.70;99.90;;;;;;4949466;29;20577;-62
2024/02/08 00:12:56;;;;;;;54.42;17.58;;;-0.60;99.90;;;;;;4948767;29;20322;-61
2024/02/08 00:15:21;;;;;;;47.53;17.83;;;-0.50;99.90;;;;;;4949634;29;20035;-62
2024/02/08 00:17:47;;;;;;;46.15;16.30;;;-0.50;99.90;;;;;;4949171;29;20023;-61
2024/02/08 00:20:15;;;;;;;41.03;16.35;;;-0.40;99.90;;;;;;4941973;28;20192;-61
2024/02/08 00:22:46;;;;;;;44.08;16.42;;;-0.30;99.90;;;;;;4939710;28;20039;-61
2024/02/08 00:25:12;;;;;;;56.60;17.13;;;-0.20;99.90;;;;;;4949592;28;20503;-61
2024/02/08 00:27:37;;;;;;;49.22;15.85;;;-0.10;99.90;;;;;;4950525;28;20089;-61
2024/02/08 00:30:03;;;;;;;42.28;16.42;;;-0.20;99.90;;;;;;4950319;29;20031;-61
2024/02/08 00:32:29;;;;;;;44.50;16.00;;;-0.30;99.90;;;;;;4950874;28;20472;-61
2024/02/08 00:34:55;;;;;;;41.83;15.18;;;-0.20;99.90;;;;;;4950541;29;20038;-61
2024/02/08 00:37:21;;;;;;;39.85;14.73;;;-0.20;99.90;;;;;;4951328;28;20026;-61
2024/02/08 00:39:47;;;;;;;41.50;14.82;;;-0.30;99.90;;;;;;4950155;29;20670;-62
2024/02/08 00:42:13;;;;;;;47.08;15.10;;;-0.30;99.90;;;;;;4950953;29;20032;-62
2024/02/08 00:44:42;;;;;;;48.05;14.05;;;-0.20;99.90;;;;;;4951112;29;20038;-61
2024/02/08 00:47:11;;;;;;;50.20;15.53;;;-0.20;99.90;;;;;;4950979;29;20035;-61
2024/02/08 00:49:40;;;;;;;41.42;15.52;;;-0.20;99.90;;;;;;4933875;29;20031;-62
2024/02/08 00:52:07;;;;;;;37.60;14.18;;;-0.10;99.90;;;;;;4948804;29;20038;-60
2024/02/08 00:54:35;;;;;;;38.53;13.52;;;0.00;99.90;;;;;;4950721;29;20106;-60
2024/02/08 00:57:07;;;;;;;36.65;14.45;;;0.10;99.90;;;;;;4950548;29;20019;-61
2024/02/08 00:59:39;;;;;;;41.95;14.23;;;0.20;99.90;;;;;;4950840;29;20027;-60
2024/02/08 01:02:06;;;;;;;38.60;13.73;;;0.20;99.90;;;;;;4950581;29;20471;-60
2024/02/08 01:04:34;;;;;;;36.15;13.18;;;0.20;99.90;;;;;;4933508;29;20035;-60
2024/02/08 01:07:00;;;;;;;37.22;13.60;;;0.10;99.90;;;;;;4951074;29;20502;-60
2024/02/08 01:09:26;;;;;;;38.30;13.45;;;0.20;99.90;;;;;;4950706;29;20058;-60
2024/02/08 01:11:52;;;;;;;42.08;13.95;;;0.20;99.90;;;;;;4951160;29;20023;-61
2024/02/08 01:14:21;;;;;;;37.92;13.40;;;0.20;99.90;;;;;;4950032;29;20563;-60
2024/02/08 01:16:50;;;;;;;34.92;12.95;;;0.20;99.90;;;;;;4947108;29;20023;-61
2024/02/08 01:19:22;;;;;;;39.65;13.65;;;0.20;99.90;;;;;;4949601;28;20081;-60
2024/02/08 01:21:56;;;;;;;38.58;13.95;;;0.30;99.90;;;;;;4949037;29;20086;-60
2024/02/08 01:24:23;;;;;;;39.83;12.65;;;0.30;99.90;;;;;;4940721;29;20028;-60
2024/02/08 01:26:49;;;;;;;38.15;14.60;;;0.20;99.90;;;;;;4951012;29;20023;-60
2024/02/08 01:29:16;;;;;;;41.70;13.38;;;0.20;99.90;;;;;;4949549;28;20491;-60
2024/02/08 01:31:42;;;;;;;36.80;13.68;;;0.10;99.90;;;;;;4943121;28;20027;-60
2024/02/08 01:34:09;;;;;;;41.25;14.00;;;0.00;99.90;;;;;;4948494;29;20114;-61
2024/02/08 01:36:38;;;;;;;34.30;13.30;;;0.00;99.90;;;;;;4933041;29;20558;-61
2024/02/08 01:39:12;;;;;;;37.30;12.87;;;-0.10;99.90;;;;;;4949494;29;20229;-60
2024/02/08 01:41:42;;;;;;;37.40;13.23;;;-0.10;99.90;;;;;;4947211;29;20259;-61
2024/02/08 01:44:08;;;;;;;33.55;13.02;;;-0.10;99.90;;;;;;4945873;29;20023;-60
2024/02/08 01:46:38;;;;;;;39.85;13.68;;;0.00;99.90;;;;;;4950451;29;20035;-60
2024/02/08 01:49:16;;;;;;;35.20;14.07;;;0.00;99.90;;;;;;4949616;29;20027;-61
2024/02/08 01:51:43;;;;;;;37.38;12.93;;;0.10;99.90;;;;;;4945691;29;20098;-61
2024/02/08 01:54:10;;;;;;;39.13;14.35;;;0.10;99.90;;;;;;4948942;29;20042;-61
2024/02/08 01:56:36;;;;;;;43.92;14.18;;;0.10;99.90;;;;;;4950342;29;20085;-61
2024/02/08 01:59:03;;;;;;;44.85;13.75;;;0.00;99.90;;;;;;4949792;29;20502;-61
2024/02/08 02:01:29;;;;;;;42.33;13.98;;;0.00;99.90;;;;;;4950444;29;20417;-61
2024/02/08 02:03:55;;;;;;;40.17;13.43;;;0.00;99.90;;;;;;4949731;29;20114;-61
2024/02/08 02:06:20;;;;;;;53.35;15.50;;;0.00;99.90;;;;;;4950339;29;20129;-61
2024/02/08 02:08:57;;;;;;;39.83;13.95;;;0.10;99.90;;;;;;4950045;29;20038;-61
2024/02/08 02:11:29;;;;;;;42.17;14.10;;;0.30;99.90;;;;;;4932854;29;20058;-61
2024/02/08 02:13:58;;;;;;;43.88;14.98;;;0.30;99.90;;;;;;4950405;29;20429;-61
2024/02/08 02:16:23;;;;;;;40.95;14.50;;;0.30;99.90;;;;;;4950063;29;20038;-61
2024/02/08 02:18:50;;;;;;;36.95;13.45;;;0.30;99.90;;;;;;4949407;28;20478;-61
2024/02/08 02:21:21;;;;;;;35.47;14.00;;;0.20;99.90;;;;;;4947970;29;20514;-61
2024/02/08 02:23:47;;;;;;;39.58;14.98;;;0.20;99.90;;;;;;4949602;29;20038;-60
2024/02/08 02:26:14;;;;;;;37.95;13.88;;;0.10;99.90;;;;;;4949555;29;20031;-60
2024/02/08 02:28:43;;;;;;;39.88;14.55;;;0.10;99.90;;;;;;4949395;29;20019;-61
2024/02/08 02:31:13;;;;;;;47.45;15.70;;;0.20;99.90;;;;;;4949214;29;20015;-61
2024/02/08 02:33:42;;;;;;;44.20;13.45;;;0.20;99.90;;;;;;4949086;29;20034;-60
2024/02/08 02:36:07;;;;;;;41.13;14.07;;;0.20;99.90;;;;;;4945914;29;20043;-60
2024/02/08 02:38:35;;;;;;;41.75;14.30;;;0.10;99.90;;;;;;4949286;29;20023;-61
2024/02/08 02:41:06;;;;;;;40.92;14.00;;;0.10;99.90;;;;;;4945776;29;20034;-60
2024/02/08 02:43:34;;;;;;;43.55;15.00;;;0.10;99.90;;;;;;4941455;28;20378;-60
2024/02/08 02:45:59;;;;;;;40.78;14.35;;;0.20;99.90;;;;;;4949183;29;20479;-60
2024/02/08 02:48:25;;;;;;;43.50;14.35;;;0.20;99.90;;;;;;4948890;29;20081;-60
2024/02/08 02:50:51;;;;;;;42.28;14.38;;;0.30;99.90;;;;;;4947898;29;20139;-60
2024/02/08 02:53:18;;;;;;;45.03;15.35;;;0.40;99.90;;;;;;4948560;29;20154;-60
2024/02/08 02:55:44;;;;;;;42.38;14.07;;;0.50;99.90;;;;;;4949846;29;20074;-60
2024/02/08 02:58:12;;;;;;;35.75;14.85;;;0.40;99.90;;;;;;4931272;29;20027;-60
2024/02/08 03:00:38;;;;;;;44.10;14.82;;;0.40;99.90;;;;;;4945760;29;20387;-60
2024/02/08 03:03:08;;;;;;;42.55;15.45;;;0.30;99.90;;;;;;4948452;29;20042;-60
2024/02/08 03:05:35;;;;;;;39.47;14.63;;;0.40;99.90;;;;;;4943040;29;20027;-60
2024/02/08 03:08:05;;;;;;;40.95;14.43;;;0.40;99.90;;;;;;4944534;29;20019;-60
2024/02/08 03:10:34;;;;;;;34.72;13.63;;;0.50;99.90;;;;;;4946423;29;20031;-60
2024/02/08 03:13:00;;;;;;;41.65;13.18;;;0.50;99.90;;;;;;4944824;29;20100;-60
2024/02/08 03:15:26;;;;;;;49.20;14.18;;;0.40;99.90;;;;;;4946204;29;20023;-60
2024/02/08 03:17:52;;;;;;;42.92;13.45;;;0.40;99.90;;;;;;4948921;28;20859;-60
2024/02/08 03:20:24;;;;;;;46.03;13.98;;;0.30;99.90;;;;;;4946958;29;20062;-60
2024/02/08 03:22:52;;;;;;;42.47;15.20;;;0.30;99.90;;;;;;4929881;29;20035;-60
2024/02/08 03:25:21;;;;;;;39.50;14.05;;;0.40;99.90;;;;;;4944542;29;20035;-60
2024/02/08 03:27:51;;;;;;;36.53;14.68;;;0.50;99.90;;;;;;4939797;29;20035;-60
2024/02/08 03:30:22;;;;;;;43.60;14.82;;;0.50;99.90;;;;;;4943624;29;20527;-60
2024/02/08 03:32:49;;;;;;;44.58;14.43;;;0.40;99.90;;;;;;4948787;29;20114;-60
2024/02/08 03:35:16;;;;;;;45.92;14.60;;;0.20;99.90;;;;;;4945770;29;20024;-60
2024/02/08 03:37:43;;;;;;;43.28;14.45;;;0.10;99.90;;;;;;4948694;29;20062;-60
2024/02/08 03:40:10;;;;;;;42.97;14.20;;;0.00;99.90;;;;;;4946006;29;20024;-60
2024/02/08 03:42:36;;;;;;;48.00;15.00;;;-0.10;99.90;;;;;;4948796;29;20027;-60
2024/02/08 03:45:06;;;;;;;41.83;14.80;;;-0.10;99.90;;;;;;4948740;29;20026;-61
2024/02/08 03:47:32;;;;;;;42.05;15.00;;;-0.20;99.90;;;;;;4948792;28;20031;-60
2024/02/08 03:49:59;;;;;;;38.92;14.23;;;-0.10;99.90;;;;;;4946076;29;20046;-60
2024/02/08 03:52:30;;;;;;;42.97;14.00;;;0.00;99.90;;;;;;4947522;29;20023;-61
2024/02/08 03:54:56;;;;;;;;;;;0.00;99.90;;;;;;4946739;29;20476;-60
2024/02/08 03:57:23;;;;;;;38.80;14.60;;;0.10;99.90;;;;;;4951642;29;20430;-60
2024/02/08 03:59:52;;;;;;;40.72;14.75;;;0.10;99.90;;;;;;4951130;29;20550;-60
2024/02/08 04:02:21;;;;;;;43.85;14.27;;;0.10;99.90;;;;;;4952618;29;20027;-60
2024/02/08 04:04:53;;;;;;;42.90;14.63;;;0.20;99.90;;;;;;4951180;29;20023;-60
2024/02/08 04:07:22;;;;;;;40.05;14.05;;;0.20;99.90;;;;;;4951284;29;20073;-60
2024/02/08 04:09:55;;;;;;;45.03;14.68;;;0.20;99.90;;;;;;4951553;29;20082;-62
2024/02/08 04:53:39;;;;;;;44.40;16.63;;;0.60;99.90;;;;;;4949660;29;20131;-61
2024/02/08 04:56:10;;;;;;;45.38;16.88;;;0.60;99.90;;;;;;4932113;29;20079;-61
2024/02/08 04:58:41;;;;;;;44.83;16.73;;;0.60;99.90;;;;;;4951166;29;20523;-62
2024/02/08 05:01:08;;;;;;;45.85;16.88;;;0.60;99.90;;;;;;4948210;29;20079;-61
2024/02/08 05:03:37;;;;;;;50.20;18.88;;;0.60;99.90;;;;;;4950529;29;20555;-60
2024/02/08 05:06:18;;;;;;;49.75;18.27;;;0.60;99.90;;;;;;4948443;29;20050;-60
2024/02/08 05:08:47;;;;;;;63.55;19.20;;;0.60;99.90;;;;;;4950851;29;20561;-60
2024/02/08 05:11:14;;;;;;;51.60;18.25;;;0.60;99.90;;;;;;4948985;29;20456;-60
2024/02/08 05:13:42;;;;;;;53.50;17.60;;;0.70;99.90;;;;;;4950502;29;20478;-60
2024/02/08 05:16:14;;;;;;;54.85;18.75;;;0.60;99.90;;;;;;4950661;29;20024;-60
2024/02/08 05:18:42;;;;;;;49.80;16.65;;;0.70;99.90;;;;;;4950833;28;20304;-60
2024/02/08 05:21:09;;;;;;;59.88;19.10;;;0.60;99.90;;;;;;4949900;29;20038;-60
2024/02/08 05:23:38;;;;;;;45.92;17.77;;;0.60;99.90;;;;;;4951327;29;20023;-61
2024/02/08 05:26:18;;;;;;;53.90;17.88;;;0.50;99.90;;;;;;4950964;29;20023;-60
2024/02/08 05:28:45;;;;;;;46.72;17.40;;;0.50;99.90;;;;;;4948741;29;20039;-60
2024/02/08 05:31:10;;;;;;;46.92;16.92;;;0.50;99.90;;;;;;4950007;29;20751;-60
2024/02/08 05:33:40;;;;;;;40.28;16.27;;;0.50;99.90;;;;;;4948943;29;20059;-60
2024/02/08 05:36:17;;;;;;;51.63;17.25;;;0.40;99.90;;;;;;4937108;29;20058;-60
2024/02/08 05:38:45;;;;;;;48.33;16.35;;;0.40;99.90;;;;;;4950366;29;20032;-60
2024/02/08 05:41:15;;;;;;;42.90;15.85;;;0.30;99.90;;;;;;4948836;29;20026;-60
2024/02/08 05:43:44;;;;;;;51.38;17.17;;;0.30;99.90;;;;;;4948998;29;20054;-60
2024/02/08 05:46:27;;;;;;;37.80;14.95;;;0.20;99.90;;;;;;4949929;29;20022;-60
2024/02/08 05:48:54;;;;;;;44.05;15.30;;;0.20;99.90;;;;;;4947920;29;20023;-60
2024/02/08 05:51:26;;;;;;;39.00;15.45;;;0.20;99.90;;;;;;4948419;29;20059;-60
2024/02/08 05:53:53;;;;;;;33.63;14.35;;;0.30;99.90;;;;;;4949289;29;20564;-60
2024/02/08 05:56:21;;;;;;;42.53;14.50;;;0.30;99.90;;;;;;4948794;29;20011;-61
2024/02/08 05:58:51;;;;;;;39.95;14.70;;;0.30;99.90;;;;;;4946444;29;20111;-60
2024/02/08 06:01:20;;;;;;;42.25;14.00;;;0.30;99.90;;;;;;4946393;29;20027;-60
2024/02/08 06:03:49;;;;;;;38.42;14.40;;;0.30;99.90;;;;;;4946870;29;20363;-59
2024/02/08 06:06:33;;;;;;;40.83;14.45;;;0.30;99.90;;;;;;4948879;29;20033;-59
2024/02/08 06:09:08;;;;;;;41.05;14.20;;;0.30;99.90;;;;;;4943722;29;20021;-61
2024/02/08 06:11:39;;;;;;;41.78;16.05;;;0.30;99.90;;;;;;4950227;29;20078;-60
2024/02/08 06:14:22;;;;;;;43.80;16.60;;;0.40;99.90;;;;;;4948233;29;20040;-61
2024/02/08 06:16:53;;;;;;;42.60;17.10;;;0.30;99.90;;;;;;4948526;29;20054;-61
2024/02/08 06:19:21;;;;;;;37.25;16.02;;;0.40;99.90;;;;;;4943031;28;20036;-61
2024/02/08 06:21:54;;;;;;;40.35;15.30;;;0.40;99.90;;;;;;4949235;29;20038;-61
2024/02/08 06:26:58;;;;;;;38.22;16.13;;;0.50;99.90;;;;;;4950531;29;20027;-61
2024/02/08 06:29:46;;;;;;;39.78;15.70;;;0.40;99.90;;;;;;4950475;29;20031;-60
2024/02/08 06:35:11;;;;;;;48.35;16.88;;;0.40;99.90;;;;;;4947302;29;20387;-61
2024/02/08 06:37:44;;;;;;;40.58;15.77;;;0.40;99.90;;;;;;4944831;29;20142;-61
2024/02/08 06:40:21;;;;;;;48.13;16.42;;;0.40;99.90;;;;;;4946779;29;20118;-60
2024/02/08 06:45:53;;;;;;;43.83;16.77;;;0.40;99.90;;;;;;4948563;28;20050;-61
2024/02/08 07:37:37;;;;;;;53.75;18.33;;;1.10;99.90;;;;;;4954197;28;20130;-60
2024/02/08 07:40:25;;;;;;;47.28;19.58;;;1.20;99.90;;;;;;4947987;28;20027;-61
2024/02/08 07:46:04;;;;;;;61.10;20.55;;;1.20;99.90;;;;;;4912341;29;20031;-61
2024/02/08 07:48:38;;;;;;;53.55;21.55;;;1.20;99.90;;;;;;4945511;28;20064;-61
2024/02/08 07:51:05;;;;;;;73.15;21.30;;;1.20;99.90;;;;;;4949820;29;20395;-61
2024/02/08 07:53:35;;;;;;;51.90;20.50;;;1.20;99.90;;;;;;4951973;29;20050;-61
2024/02/08 07:56:29;;;;;;;54.28;19.80;;;1.30;99.90;;;;;;4951666;29;20466;-61
2024/02/08 07:58:56;;;;;;;49.00;18.70;;;1.40;99.90;;;;;;4949859;29;20023;-61
2024/02/08 08:01:26;;;;;;;44.47;17.67;;;1.50;99.90;;;;;;4952498;29;20375;-62
2024/02/08 08:03:56;;;;;;;58.75;21.40;;;1.60;99.90;;;;;;4953583;28;20488;-60
2024/02/08 08:06:22;;;;;;;51.53;19.60;;;1.60;99.90;;;;;;4933099;29;20515;-61
2024/02/08 08:08:57;;;;;;;46.05;18.17;;;1.60;99.90;;;;;;4951436;29;20181;-61
2024/02/08 08:11:25;;;;;;;47.15;18.17;;;1.70;99.90;;;;;;4952091;29;20019;-61
2024/02/08 08:18:58;;;;;;;45.78;16.90;;;2.10;99.90;;;;;;4951028;29;20134;-61
2024/02/08 08:21:29;;;;;;;37.03;14.27;;;2.10;99.90;;;;;;4946036;29;20031;-61
2024/02/08 08:24:02;;;;;;;33.95;14.65;;;2.20;99.90;;;;;;4951135;29;20418;-61
2024/02/08 08:26:44;;;;;;;39.40;14.68;;;2.30;99.90;;;;;;4947901;29;20348;-61
2024/02/08 08:29:16;;;;;;;36.42;13.95;;;2.30;99.90;;;;;;4929948;29;20027;-61
2024/02/08 08:31:51;;;;;;;33.85;14.23;;;2.40;99.90;;;;;;4951278;29;20023;-60
2024/02/08 08:36:58;;;;;;;34.15;13.20;;;2.40;99.90;;;;;;4951492;29;20494;-60
2024/02/08 08:42:17;;;;;;;31.85;11.75;;;2.60;99.90;;;;;;4950567;28;20561;-61
2024/02/08 08:44:48;;;;;;;33.45;13.32;;;2.70;99.90;;;;;;4950717;29;20103;-61
2024/02/08 08:47:15;;;;;;;26.25;12.25;;;2.80;99.90;;;;;;4950994;29;20470;-61
2024/02/08 08:49:42;;;;;;;28.20;12.23;;;2.80;99.90;;;;;;4946719;29;20074;-61
2024/02/08 08:52:09;;;;;;;32.53;12.82;;;2.90;99.90;;;;;;4948880;29;20042;-61
2024/02/08 08:54:36;;;;;;;31.70;11.98;;;3.00;99.90;;;;;;4946575;29;20030;-61
2024/02/08 08:57:12;;;;;;;27.88;11.75;;;3.00;99.90;;;;;;4940772;29;20028;-61
2024/02/08 08:59:42;;;;;;;28.20;11.43;;;3.10;99.90;;;;;;4945860;29;20026;-61
2024/02/08 09:02:08;;;;;;;;;;;3.20;99.90;;;;;;4948353;29;20035;-62
2024/02/08 09:04:35;;;;;;;27.63;11.05;;;3.40;99.90;;;;;;4945208;29;19914;-61
2024/02/08 09:07:11;;;;;;;25.88;10.57;;;3.50;99.90;;;;;;4946924;29;20034;-61
2024/02/08 09:09:54;;;;;;;24.73;9.93;;;3.80;99.90;;;;;;4944233;29;20031;-61
2024/02/08 09:12:28;;;;;;;22.55;10.23;;;4.00;99.90;;;;;;4930588;29;20038;-62
2024/02/08 09:15:00;;;;;;;22.02;9.07;;;4.20;99.90;;;;;;4948400;29;20019;-61
2024/02/08 09:17:43;;;;;;;20.75;8.35;;;4.40;99.90;;;;;;4950470;29;20554;-62
2024/02/08 09:20:23;;;;;;;20.08;8.15;;;4.30;99.90;;;;;;4944523;29;20062;-61
2024/02/08 09:22:52;;;;;;;21.25;7.75;;;4.10;99.90;;;;;;4950504;29;20368;-61
2024/02/08 09:25:24;;;;;;;17.98;7.70;;;4.10;99.90;;;;;;4941599;29;20050;-61
2024/02/08 09:27:56;;;;;;;19.88;7.28;;;4.10;99.90;;;;;;4949898;29;20031;-62
2024/02/08 09:30:57;;;;;;;19.27;7.53;;;4.10;99.90;;;;;;4947009;29;20019;-61
2024/02/08 09:33:30;;;;;;;19.55;7.88;;;4.10;99.90;;;;;;4946816;28;20066;-61
2024/02/08 09:36:01;;;;;;;17.02;6.93;;;4.10;99.90;;;;;;4943827;29;20399;-61
2024/02/08 09:38:28;;;;;;;23.40;7.00;;;4.10;99.90;;;;;;4950006;29;20678;-61
2024/02/08 09:40:59;;;;;;;17.20;6.90;;;4.20;99.90;;;;;;4950021;29;20027;-61
2024/02/08 09:43:29;;;;;;;16.98;6.32;;;4.20;99.90;;;;;;4949959;29;20110;-61
2024/02/08 09:46:16;;;;;;;16.98;6.07;;;4.20;99.90;;;;;;4950321;29;20313;-61
2024/02/08 09:48:47;;;;;;;14.52;6.07;;;4.20;99.90;;;;;;4947644;29;20035;-61
2024/02/08 09:51:22;;;;;;;;;;;4.10;99.90;;;;;;4945212;29;20030;-61
2024/02/08 09:53:52;;;;;;;16.17;6.45;;;4.00;99.90;;;;;;4948860;28;19911;-61
2024/02/08 09:56:37;;;;;;;16.65;6.78;;;4.00;99.90;;;;;;4946462;29;20308;-61
2024/02/08 09:59:07;;;;;;;18.05;6.45;;;4.00;99.90;;;;;;4948770;29;20105;-61
2024/02/08 10:01:49;;;;;;;17.20;7.57;;;4.00;99.90;;;;;;4947133;29;20419;-61
2024/02/08 10:04:16;;;;;;;15.77;6.68;;;4.00;99.90;;;;;;4949386;29;20498;-62
2024/02/08 10:06:46;;;;;;;17.90;7.63;;;4.00;99.90;;;;;;4945878;29;20023;-61
2024/02/08 10:12:06;;;;;;;15.68;6.65;;;4.10;99.90;;;;;;4948531;29;20061;-61
2024/02/08 10:14:36;;;;;;;15.05;6.25;;;4.10;99.90;;;;;;4945684;29;20360;-61
2024/02/08 10:17:17;;;;;;;14.32;6.25;;;4.10;99.90;;;;;;4946128;29;20027;-61
2024/02/08 10:22:54;;;;;;;17.95;6.80;;;4.30;99.90;;;;;;4948095;29;20530;-61
2024/02/08 10:28:09;;;;;;;16.45;6.65;;;4.40;99.90;;;;;;4945912;29;20038;-61
2024/02/08 10:30:38;;;;;;;16.45;6.82;;;4.40;99.90;;;;;;4945691;29;20106;-61
2024/02/08 10:33:14;;;;;;;19.15;7.15;;;4.60;99.90;;;;;;4947867;29;20555;-61
2024/02/08 10:35:42;;;;;;;18.20;6.88;;;4.60;99.90;;;;;;4944504;29;20336;-61
2024/02/08 10:38:25;;;;;;;16.42;6.25;;;4.70;99.90;;;;;;4947208;29;20031;-61
2024/02/08 10:40:55;;;;;;;16.95;6.35;;;4.90;99.90;;;;;;4945990;29;20031;-61
2024/02/08 10:43:25;;;;;;;18.33;6.18;;;4.90;99.90;;;;;;4947367;29;20019;-61
2024/02/08 10:46:02;;;;;;;13.00;5.10;;;4.90;99.90;;;;;;4948610;29;20449;-61
2024/02/08 10:48:29;;;;;;;14.55;5.97;;;4.90;99.90;;;;;;4945591;29;20082;-61
2024/02/08 10:51:11;;;;;;;14.70;6.07;;;4.90;99.90;;;;;;4944937;29;20039;-61
2024/02/08 10:53:48;;;;;;;14.13;6.13;;;4.90;99.90;;;;;;4947167;29;20046;-62
2024/02/08 10:56:17;;;;;;;15.00;5.90;;;4.80;99.90;;;;;;4946668;29;20023;-61
2024/02/08 10:58:55;;;;;;;14.82;5.85;;;4.70;99.90;;;;;;4948106;29;20037;-61
2024/02/08 11:02:00;;;;;;;13.88;5.45;;;4.70;99.90;;;;;;4944729;29;20260;-61
2024/02/08 11:04:33;;;;;;;14.13;5.38;;;4.70;99.90;;;;;;4944276;29;20071;-61
2024/02/08 11:07:06;;;;;;;11.43;4.60;;;4.70;99.90;;;;;;4947387;29;20094;-61
2024/02/08 11:09:35;;;;;;;14.00;5.07;;;4.70;99.90;;;;;;4948463;29;20023;-62
2024/02/08 11:12:15;;;;;;;13.75;5.53;;;4.60;99.90;;;;;;4946163;29;20113;-61
2024/02/08 11:14:51;;;;;;;13.35;5.40;;;4.70;99.90;;;;;;4948016;29;20106;-61
2024/02/08 11:17:21;;;;;;;11.32;4.88;;;4.80;99.90;;;;;;4947854;29;20069;-61
2024/02/08 11:19:57;;;;;;;15.30;4.78;;;4.80;99.90;;;;;;4947208;29;20047;-62
2024/02/08 11:22:40;;;;;;;14.65;5.10;;;4.90;99.90;;;;;;4946998;29;20384;-61
2024/02/08 11:25:19;;;;;;;14.98;6.03;;;4.90;99.90;;;;;;4947273;29;20031;-61
2024/02/08 11:27:49;;;;;;;15.07;5.23;;;4.80;99.90;;;;;;4948371;29;20166;-61
2024/02/08 11:30:19;;;;;;;15.20;5.25;;;4.80;99.90;;;;;;4946592;29;20584;-61
2024/02/08 11:33:01;;;;;;;15.73;5.70;;;4.70;99.90;;;;;;4948264;29;20102;-61
2024/02/08 11:35:35;;;;;;;14.63;5.13;;;4.80;99.90;;;;;;4943080;29;20118;-61
2024/02/08 11:38:28;;;;;;;14.70;5.22;;;4.80;99.90;;;;;;4930300;29;20082;-62
2024/02/08 11:40:57;;;;;;;13.57;5.43;;;4.80;99.90;;;;;;4946763;29;20538;-61
2024/02/08 11:43:24;;;;;;;13.70;5.43;;;4.70;99.90;;;;;;4948387;29;20033;-61
2024/02/08 11:45:54;;;;;;;16.10;5.72;;;4.60;99.90;;;;;;4948422;29;20275;-61
2024/02/08 11:48:23;;;;;;;;;;;4.60;99.90;;;;;;4944005;29;20090;-62
2024/02/08 11:50:50;;;;;;;13.60;5.55;;;4.80;99.90;;;;;;4947039;29;19933;-62
2024/02/08 11:53:33;;;;;;;14.88;5.50;;;4.80;99.90;;;;;;4943860;29;20026;-62
2024/02/08 11:56:08;;;;;;;14.65;5.85;;;4.70;99.90;;;;;;4946015;29;20495;-62
2024/02/08 11:58:52;;;;;;;13.65;5.53;;;4.80;99.90;;;;;;4947915;29;20134;-62
2024/02/08 12:01:25;;;;;;;15.07;5.07;;;4.90;99.90;;;;;;4944171;29;20517;-62
2024/02/08 12:03:53;;;;;;;11.80;4.75;;;5.00;99.90;;;;;;4944744;29;20115;-60
2024/02/08 12:06:22;;;;;;;15.65;5.15;;;4.90;99.90;;;;;;4947638;29;20054;-60
2024/02/08 12:08:55;;;;;;;11.13;5.10;;;4.90;99.90;;;;;;4944524;29;20035;-60
2024/02/08 12:11:22;;;;;;;12.35;5.30;;;5.00;99.90;;;;;;4947743;29;20263;-61
2024/02/08 12:13:48;;;;;;;13.80;5.40;;;5.00;99.90;;;;;;4948191;29;20128;-60
2024/02/08 12:16:14;;;;;;;12.80;5.43;;;5.00;99.90;;;;;;4946824;28;20099;-60
2024/02/08 12:18:41;;;;;;;13.73;5.25;;;4.90;99.90;;;;;;4951317;29;20055;-60
2024/02/08 12:21:08;;;;;;;15.43;6.38;;;4.90;99.90;;;;;;4948247;29;20102;-60
2024/02/08 12:23:35;;;;;;;15.80;6.20;;;4.80;99.90;;;;;;4951527;29;20388;-60
2024/02/08 12:26:08;;;;;;;14.10;5.88;;;4.70;99.90;;;;;;4950507;29;20089;-61
2024/02/08 12:28:39;;;;;;;15.35;6.35;;;4.70;99.90;;;;;;4951094;29;20476;-60
2024/02/08 12:31:16;;;;;;;13.00;5.43;;;4.90;99.90;;;;;;4950362;29;20020;-60
2024/02/08 12:33:45;;;;;;;16.98;6.60;;;5.00;99.90;;;;;;4933957;29;20483;-61
2024/02/08 12:36:12;;;;;;;17.27;7.70;;;5.00;99.90;;;;;;4950797;29;20025;-60
2024/02/08 12:38:38;;;;;;;17.88;6.45;;;5.00;99.90;;;;;;4934154;29;20023;-60
2024/02/08 12:41:06;;;;;;;17.98;7.18;;;4.80;99.90;;;;;;4950301;29;20078;-60
2024/02/08 12:43:33;;;;;;;18.13;7.18;;;4.80;99.90;;;;;;4950930;29;20019;-61
2024/02/08 12:45:59;;;;;;;18.48;7.65;;;4.70;99.90;;;;;;4951212;29;20034;-60
2024/02/08 12:48:28;;;;;;;20.50;7.40;;;4.60;99.90;;;;;;4950945;29;20538;-60
2024/02/08 12:51:03;;;;;;;19.30;8.23;;;4.60;99.90;;;;;;4949707;29;20034;-60
2024/02/08 12:53:35;;;;;;;21.55;7.80;;;4.70;99.90;;;;;;4950794;29;20016;-60
2024/02/08 12:56:09;;;;;;;17.70;6.95;;;4.60;99.90;;;;;;4949792;29;20023;-60
2024/02/08 12:58:35;;;;;;;18.02;7.13;;;4.70;99.90;;;;;;4950256;29;20027;-60
2024/02/08 13:01:04;;;;;;;19.27;6.97;;;4.70;99.90;;;;;;4950675;29;20031;-60
2024/02/08 13:03:37;;;;;;;19.35;8.20;;;4.80;99.90;;;;;;4933101;29;20102;-60
2024/02/08 13:06:03;;;;;;;15.13;7.10;;;4.90;99.90;;;;;;4949468;29;20035;-60
2024/02/08 13:08:33;;;;;;;22.42;9.20;;;4.90;99.90;;;;;;4950216;29;20066;-60
2024/02/08 13:11:00;;;;;;;23.88;8.38;;;5.00;99.90;;;;;;4950063;29;20450;-61
2024/02/08 13:13:26;;;;;;;21.40;7.35;;;5.10;99.90;;;;;;4950944;29;20375;-61
2024/02/08 13:15:58;;;;;;;19.73;8.73;;;5.00;99.90;;;;;;4931614;29;20024;-60
2024/02/08 13:18:30;;;;;;;24.60;9.13;;;5.00;99.90;;;;;;4949963;29;20039;-60
2024/02/08 13:20:57;;;;;;;21.75;8.63;;;4.90;99.90;;;;;;4948695;29;20031;-60
2024/02/08 13:23:24;;;;;;;21.92;8.80;;;4.90;99.90;;;;;;4950894;29;20089;-60
2024/02/08 13:25:54;;;;;;;20.38;8.55;;;4.90;99.90;;;;;;4950587;29;20034;-60
2024/02/08 13:28:24;;;;;;;20.55;8.00;;;4.80;99.90;;;;;;4948391;28;20364;-60
2024/02/08 13:30:54;;;;;;;17.60;8.73;;;4.80;99.90;;;;;;4933200;29;20030;-60
2024/02/08 13:33:20;;;;;;;;;;;4.90;99.90;;;;;;4949952;29;20382;-60
2024/02/08 13:35:52;;;;;;;20.13;9.68;;;4.90;99.90;;;;;;4950831;29;19910;-60
2024/02/08 13:38:22;;;;;;;19.67;9.50;;;4.80;99.90;;;;;;4930953;29;20027;-60
2024/02/08 13:40:53;;;;;;;21.08;10.73;;;4.80;99.90;;;;;;4931084;29;20051;-60
2024/02/08 13:43:20;;;;;;;24.70;11.00;;;4.70;99.90;;;;;;4931032;29;20019;-60
2024/02/08 13:45:46;;;;;;;23.48;11.98;;;4.70;99.90;;;;;;4950374;29;20521;-60
2024/02/08 13:48:15;;;;;;;23.90;10.00;;;4.60;99.90;;;;;;4931850;29;20388;-60
2024/02/08 13:50:43;;;;;;;24.93;12.30;;;4.60;99.90;;;;;;4948538;29;20038;-60
2024/02/08 13:53:10;;;;;;;22.95;11.18;;;4.60;99.90;;;;;;4949129;29;20471;-60
2024/02/08 13:55:35;;;;;;;25.52;12.35;;;4.50;99.90;;;;;;4946377;29;20387;-60
2024/02/08 13:58:06;;;;;;;24.45;12.02;;;4.50;99.90;;;;;;4949339;29;20027;-60
2024/02/08 14:00:31;;;;;;;22.23;10.50;;;4.50;99.90;;;;;;4949840;29;20038;-60
2024/02/08 14:02:57;;;;;;;23.33;10.32;;;4.40;99.90;;;;;;4931867;29;20027;-60
2024/02/08 14:05:25;;;;;;;24.50;9.40;;;4.50;99.90;;;;;;4944492;29;20031;-60
2024/02/08 14:07:54;;;;;;;26.00;11.05;;;4.50;99.90;;;;;;4949133;29;20019;-60
2024/02/08 14:10:27;;;;;;;21.55;10.13;;;4.50;99.90;;;;;;4931903;29;20482;-60
2024/02/08 14:13:06;;;;;;;18.67;8.40;;;4.40;99.90;;;;;;4949699;29;20034;-61
2024/02/08 14:15:32;;;;;;;21.42;10.07;;;5.40;99.90;;;;;;4948307;29;20369;-60
2024/02/08 14:18:11;;;;;;;23.92;9.65;;;4.20;99.90;;;;;;4948712;29;20114;-61
2024/02/08 14:20:47;;;;;;;24.48;10.50;;;4.20;99.90;;;;;;4944271;29;20035;-60
2024/02/08 14:23:14;;;;;;;23.48;8.27;;;4.30;99.90;;;;;;4946323;29;20371;-61
2024/02/08 14:26:03;;;;;;;25.77;8.80;;;4.20;99.90;;;;;;4945922;29;20027;-61
2024/02/08 14:28:30;;;;;;;24.58;9.18;;;4.10;99.90;;;;;;4949042;29;20113;-61
2024/02/08 14:30:55;;;;;;;21.77;9.40;;;4.20;99.90;;;;;;4949929;29;20039;-62
2024/02/08 14:33:22;;;;;;;29.08;10.23;;;4.30;99.90;;;;;;4948965;29;20027;-61
2024/02/08 14:35:48;;;;;;;25.67;9.73;;;4.20;99.90;;;;;;4945955;29;20019;-62
2024/02/08 14:38:14;;;;;;;22.77;8.70;;;4.20;99.90;;;;;;4948385;29;20510;-61
2024/02/08 14:40:40;;;;;;;18.65;7.88;;;4.20;99.90;;;;;;4949540;28;20066;-62
2024/02/08 14:43:06;;;;;;;26.90;10.32;;;4.20;99.90;;;;;;4948186;29;20050;-62
2024/02/08 14:45:38;;;;;;;25.27;9.35;;;4.20;99.90;;;;;;4945791;29;20488;-61
2024/02/08 14:48:09;;;;;;;26.13;10.85;;;4.10;99.90;;;;;;4944648;29;20035;-62
2024/02/08 14:50:52;;;;;;;24.98;9.10;;;4.10;99.90;;;;;;4948709;28;20027;-62
2024/02/08 14:53:19;;;;;;;24.83;9.75;;;4.10;99.90;;;;;;4947601;28;20020;-62
2024/02/08 14:55:45;;;;;;;23.77;9.77;;;4.10;99.90;;;;;;4945930;29;20023;-62
2024/02/08 14:58:32;;;;;;;27.70;9.00;;;4.00;99.90;;;;;;4949023;28;20407;-62